Time;durP1;ratioP1;P1;durP2;ratioP2;P2;SDS_P1;SDS_P2;PMS_P1;PMS_P2;Temp;Humidity;BMP_temperature;BMP_pressure;BME280_temperature;BME280_humidity;BME280_pressure;Samples;Min_cycle;Max_cycle;Signal;HPM_P1;HPM_P2
2022/11/29 00:02:02;;;;;;;30.85;20.20;;;8.90;99.90;;;;;;5136219;27;20176;-63
2022/11/29 00:04:27;;;;;;;36.88;22.95;;;9.00;99.90;;;;;;5136141;27;20173;-61
2022/11/29 00:06:53;;;;;;;37.75;22.48;;;9.10;99.90;;;;;;5117625;27;20200;-62
2022/11/29 00:09:19;;;;;;;44.63;23.55;;;9.20;99.90;;;;;;5117572;27;20303;-62
2022/11/29 00:14:29;;;;;;;41.08;22.10;;;9.20;99.90;;;;;;5136114;27;20196;-62
2022/11/29 00:17:00;;;;;;;34.65;26.38;;;9.10;99.90;;;;;;5135943;27;20177;-63
2022/11/29 00:19:26;;;;;;;35.00;22.05;;;9.10;99.90;;;;;;5135748;27;20263;-62
2022/11/29 00:21:52;;;;;;;30.85;23.25;;;9.10;99.90;;;;;;5135520;27;20618;-62
2022/11/29 00:24:18;;;;;;;35.20;21.88;;;9.00;99.90;;;;;;5100318;27;20176;-62
2022/11/29 00:26:44;;;;;;;32.15;23.30;;;9.10;99.90;;;;;;5135412;27;20173;-63
2022/11/29 00:29:11;;;;;;;36.63;27.08;;;9.10;99.90;;;;;;5117342;27;20192;-63
2022/11/29 00:31:38;;;;;;;34.08;26.40;;;9.10;99.90;;;;;;5117240;27;20564;-63
2022/11/29 00:34:05;;;;;;;52.78;25.50;;;9.10;99.90;;;;;;5135611;27;20173;-61
2022/11/29 00:36:33;;;;;;;36.72;23.83;;;9.10;99.90;;;;;;5117123;27;20263;-62
2022/11/29 00:38:59;;;;;;;36.55;23.63;;;9.10;99.90;;;;;;5117323;27;20177;-62
2022/11/29 00:41:25;;;;;;;50.15;24.50;;;9.10;99.90;;;;;;5135460;27;20651;-62
2022/11/29 00:43:50;;;;;;;40.22;23.50;;;9.10;99.90;;;;;;5135686;27;20259;-63
2022/11/29 00:46:16;;;;;;;45.42;23.23;;;9.10;99.90;;;;;;5135375;27;20161;-62
2022/11/29 00:48:42;;;;;;;62.85;26.50;;;9.10;99.90;;;;;;5135086;27;20177;-62
2022/11/29 00:51:07;;;;;;;51.75;28.20;;;9.10;99.90;;;;;;5116961;27;20194;-62
2022/11/29 00:53:34;;;;;;;61.75;28.65;;;9.10;99.90;;;;;;5135176;27;20533;-63
2022/11/29 00:56:00;;;;;;;98.90;35.03;;;9.10;99.90;;;;;;5116611;27;20182;-63
2022/11/29 00:58:27;;;;;;;48.35;33.58;;;9.00;99.90;;;;;;5135184;27;20173;-62
2022/11/29 01:00:53;;;;;;;66.53;25.48;;;8.80;99.90;;;;;;5116795;27;20165;-63
2022/11/29 01:03:19;;;;;;;79.93;27.98;;;8.90;99.90;;;;;;5116744;27;20645;-62
2022/11/29 01:05:45;;;;;;;73.75;25.30;;;9.10;99.90;;;;;;5134853;27;20209;-63
2022/11/29 01:08:11;;;;;;;99.95;27.55;;;9.20;99.90;;;;;;5134857;27;20175;-63
2022/11/29 01:10:37;;;;;;;76.70;35.67;;;9.20;99.90;;;;;;5134447;27;20604;-63
2022/11/29 01:13:03;;;;;;;60.67;25.38;;;9.10;99.90;;;;;;5134798;27;20196;-63
2022/11/29 01:15:29;;;;;;;63.97;24.85;;;9.20;99.90;;;;;;5135050;27;20223;-62
2022/11/29 01:17:55;;;;;;;44.22;31.63;;;9.10;99.90;;;;;;5134758;27;20212;-63
2022/11/29 01:20:21;;;;;;;35.45;21.70;;;9.10;99.90;;;;;;5134553;27;20234;-62
2022/11/29 01:22:46;;;;;;;33.42;21.88;;;9.00;99.90;;;;;;5134507;27;20172;-62
2022/11/29 01:25:13;;;;;;;65.25;28.65;;;8.80;99.90;;;;;;5134404;27;20629;-63
2022/11/29 01:27:39;;;;;;;181.45;63.92;;;8.70;99.90;;;;;;5134661;27;20225;-63
2022/11/29 01:30:06;;;;;;;74.18;41.58;;;8.80;99.90;;;;;;5099594;27;20178;-62
2022/11/29 01:32:32;;;;;;;40.70;27.08;;;8.90;99.90;;;;;;5115988;27;20584;-62
2022/11/29 01:34:57;;;;;;;75.53;25.08;;;8.90;99.90;;;;;;5116057;28;20184;-63
2022/11/29 01:37:23;;;;;;;49.10;22.42;;;9.10;99.90;;;;;;5115984;27;20267;-62
2022/11/29 01:39:52;;;;;;;52.95;32.67;;;9.10;99.90;;;;;;5134004;27;20198;-62
2022/11/29 01:42:18;;;;;;;32.50;22.17;;;9.00;99.90;;;;;;5134521;27;20511;-62
2022/11/29 01:44:43;;;;;;;38.00;22.52;;;9.10;99.90;;;;;;5116146;27;20221;-62
2022/11/29 01:47:10;;;;;;;61.03;23.52;;;9.10;99.90;;;;;;5134291;27;20217;-62
2022/11/29 01:49:45;;;;;;;66.00;40.13;;;9.10;99.90;;;;;;5115973;28;20165;-63
2022/11/29 01:52:15;;;;;;;121.45;28.65;;;9.00;99.90;;;;;;5134031;28;20545;-62
2022/11/29 01:54:44;;;;;;;121.13;31.40;;;9.10;99.90;;;;;;5134337;28;20166;-62
2022/11/29 01:57:10;;;;;;;38.17;22.38;;;9.10;99.90;;;;;;5134121;28;20169;-62
2022/11/29 01:59:40;;;;;;;41.47;27.60;;;9.10;99.90;;;;;;5134052;28;20169;-62
2022/11/29 02:02:13;;;;;;;88.18;26.88;;;9.10;99.90;;;;;;5134178;28;20203;-62
2022/11/29 02:04:42;;;;;;;87.88;39.13;;;9.10;99.90;;;;;;5133992;28;20169;-62
2022/11/29 02:07:08;;;;;;;89.35;36.72;;;9.00;99.90;;;;;;5134524;28;20168;-62
2022/11/29 02:09:34;;;;;;;36.22;25.77;;;9.00;99.90;;;;;;5134202;28;20630;-62
2022/11/29 02:12:36;;;;;;;115.25;45.40;;;8.90;99.90;;;;;;5133940;28;20200;-62
2022/11/29 02:15:26;;;;;;;163.68;62.75;;;8.90;99.90;;;;;;5134059;28;20172;-62
2022/11/29 02:18:10;;;;;;;66.78;41.97;;;8.80;99.90;;;;;;5134064;28;20222;-62
2022/11/29 02:20:53;;;;;;;53.67;35.45;;;8.50;99.90;;;;;;5134168;27;20169;-63
2022/11/29 02:23:57;;;;;;;81.50;26.67;;;8.60;99.90;;;;;;5119534;27;20702;-62
2022/11/29 02:26:38;;;;;;;66.50;36.35;;;8.70;99.90;;;;;;5095023;27;20186;-62
2022/11/29 02:29:29;;;;;;;37.88;19.80;;;8.70;99.90;;;;;;5137919;27;20567;-62
2022/11/29 02:32:32;;;;;;;33.90;19.45;;;8.70;99.90;;;;;;5137770;27;20664;-63
2022/11/29 02:35:16;;;;;;;39.35;20.45;;;8.70;99.90;;;;;;5137856;27;20171;-64
2022/11/29 02:38:03;;;;;;;37.88;28.25;;;8.50;99.90;;;;;;5138031;27;20199;-62
2022/11/29 02:40:31;;;;;;;21.38;16.30;;;8.30;99.90;;;;;;5137527;27;20187;-62
2022/11/29 02:43:26;;;;;;;30.77;19.13;;;8.40;99.90;;;;;;5137563;27;20177;-62
2022/11/29 02:46:22;;;;;;;24.60;17.70;;;8.30;99.90;;;;;;5137812;27;20169;-62
2022/11/29 02:48:53;;;;;;;32.10;19.40;;;8.40;99.90;;;;;;5137965;27;20191;-62
2022/11/29 02:51:42;;;;;;;32.60;18.77;;;8.30;99.90;;;;;;5137486;27;20621;-62
2022/11/29 02:54:32;;;;;;;25.13;18.33;;;8.30;99.90;;;;;;5119143;27;20188;-62
2022/11/29 02:57:05;;;;;;;44.55;18.65;;;8.30;99.90;;;;;;5137316;27;20168;-62
2022/11/29 02:59:54;;;;;;;72.32;20.95;;;8.20;99.90;;;;;;5137299;27;20170;-62
2022/11/29 03:02:25;;;;;;;67.07;21.67;;;8.20;99.90;;;;;;5137370;27;20165;-62
2022/11/29 03:05:03;;;;;;;122.57;25.83;;;8.20;99.90;;;;;;5118896;27;20202;-63
2022/11/29 03:07:40;;;;;;;54.75;19.13;;;8.20;99.90;;;;;;5137167;27;20182;-62
2022/11/29 03:10:39;;;;;;;68.50;20.55;;;8.10;99.90;;;;;;5137348;27;20181;-62
2022/11/29 03:13:18;;;;;;;34.30;17.50;;;8.10;99.90;;;;;;5137012;27;20209;-62
2022/11/29 03:16:07;;;;;;;38.00;17.08;;;8.20;99.90;;;;;;5119763;27;20647;-62
2022/11/29 03:18:49;;;;;;;62.65;20.60;;;8.20;99.90;;;;;;5137100;27;20527;-62
2022/11/29 03:21:38;;;;;;;52.05;17.98;;;8.20;99.90;;;;;;5137257;27;20614;-62
2022/11/29 03:24:30;;;;;;;35.88;17.75;;;8.10;99.90;;;;;;5136604;27;20181;-61
2022/11/29 03:27:08;;;;;;;28.30;15.93;;;8.10;99.90;;;;;;5126136;27;20215;-62
2022/11/29 03:29:53;;;;;;;25.80;15.10;;;7.90;99.90;;;;;;5137066;27;20171;-63
2022/11/29 03:32:51;;;;;;;23.55;15.48;;;7.90;99.90;;;;;;5136198;27;20605;-62
2022/11/29 03:35:29;;;;;;;24.17;15.48;;;7.90;99.90;;;;;;5136825;27;20259;-62
2022/11/29 03:38:07;;;;;;;23.00;15.82;;;7.90;99.90;;;;;;5136578;27;20268;-63
2022/11/29 03:40:59;;;;;;;19.77;14.68;;;7.90;99.90;;;;;;5136318;27;20194;-62
2022/11/29 03:43:44;;;;;;;24.30;16.27;;;7.80;99.90;;;;;;5136470;27;20182;-62
2022/11/29 03:46:42;;;;;;;36.08;18.52;;;7.80;99.90;;;;;;5136353;27;20217;-62
2022/11/29 03:49:17;;;;;;;32.42;17.55;;;7.90;99.90;;;;;;5095048;27;20552;-62
2022/11/29 03:52:04;;;;;;;28.80;16.70;;;7.90;99.90;;;;;;5136272;27;20214;-62
2022/11/29 03:54:52;;;;;;;68.85;18.85;;;7.90;99.90;;;;;;5136552;27;20189;-62
2022/11/29 03:57:29;;;;;;;94.75;21.23;;;8.00;99.90;;;;;;5136138;27;20180;-62
2022/11/29 04:00:06;;;;;;;83.75;20.73;;;8.00;99.90;;;;;;5136612;27;20175;-62
2022/11/29 04:02:46;;;;;;;102.40;22.05;;;8.00;99.90;;;;;;5136157;27;20648;-62
2022/11/29 04:05:36;;;;;;;137.35;25.13;;;7.90;99.90;;;;;;5136035;27;20273;-62
2022/11/29 04:08:32;;;;;;;170.52;26.88;;;7.70;99.90;;;;;;5136342;27;20187;-62
2022/11/29 04:11:15;;;;;;;61.40;18.63;;;7.40;99.90;;;;;;5117538;27;20177;-62
2022/11/29 04:13:44;;;;;;;76.10;19.48;;;7.60;99.90;;;;;;5117561;27;20200;-62
2022/11/29 04:16:37;;;;;;;111.53;23.35;;;7.70;99.90;;;;;;5135743;27;20171;-63
2022/11/29 04:19:14;;;;;;;74.80;18.23;;;7.70;99.90;;;;;;5117243;27;20178;-62
2022/11/29 04:22:02;;;;;;;71.13;19.15;;;7.80;99.90;;;;;;5135786;27;20175;-62
2022/11/29 04:24:33;;;;;;;103.50;24.17;;;7.80;99.90;;;;;;5135738;27;20225;-62
2022/11/29 04:27:56;;;;;;;46.85;18.52;;;7.80;99.90;;;;;;5135584;27;20668;-63
2022/11/29 04:30:26;;;;;;;43.25;15.68;;;7.90;99.90;;;;;;5032335;28;20190;-62
2022/11/29 04:32:58;;;;;;;47.42;16.15;;;7.90;99.90;;;;;;5016506;28;20214;-62
2022/11/29 04:36:04;;;;;;;55.90;17.42;;;7.90;99.90;;;;;;5100742;27;20188;-63
2022/11/29 04:38:55;;;;;;;125.88;26.33;;;8.00;99.90;;;;;;5135593;27;20250;-62
2022/11/29 04:41:38;;;;;;;51.00;18.80;;;7.90;99.90;;;;;;5135205;27;20183;-62
2022/11/29 04:44:11;;;;;;;86.70;21.10;;;7.80;99.90;;;;;;5134993;27;20233;-62
2022/11/29 04:46:39;;;;;;;74.03;20.75;;;7.70;99.90;;;;;;5134884;27;20171;-62
2022/11/29 04:49:16;;;;;;;39.38;16.70;;;7.30;99.90;;;;;;5135091;27;20172;-62
2022/11/29 04:52:04;;;;;;;43.63;16.70;;;7.30;99.90;;;;;;5135220;27;20200;-62
2022/11/29 04:54:46;;;;;;;78.05;20.95;;;7.40;99.90;;;;;;5135149;27;20191;-62
2022/11/29 04:57:34;;;;;;;84.95;19.38;;;7.50;99.90;;;;;;5135144;27;20172;-62
2022/11/29 05:00:09;;;;;;;82.50;19.88;;;7.40;99.90;;;;;;5135267;27;20483;-62
2022/11/29 05:02:35;;;;;;;75.38;18.55;;;7.40;99.90;;;;;;5135029;27;20180;-62
2022/11/29 05:05:03;;;;;;;53.25;16.83;;;7.50;99.90;;;;;;5135274;27;20178;-63
2022/11/29 05:07:42;;;;;;;60.60;17.83;;;7.60;99.90;;;;;;5134831;27;20165;-62
2022/11/29 05:10:10;;;;;;;93.28;20.70;;;7.60;99.90;;;;;;5117621;27;20179;-62
2022/11/29 05:12:54;;;;;;;53.05;17.17;;;7.20;99.90;;;;;;5134835;27;20239;-62
2022/11/29 05:15:38;;;;;;;31.40;14.68;;;7.30;99.90;;;;;;5134844;27;20197;-62
2022/11/29 05:18:16;;;;;;;58.88;18.17;;;7.40;99.90;;;;;;5116334;27;20177;-62
2022/11/29 05:20:57;;;;;;;66.18;19.33;;;7.50;99.90;;;;;;5134593;27;20659;-62
2022/11/29 05:23:47;;;;;;;67.63;20.33;;;7.50;99.90;;;;;;5134701;27;20640;-62
2022/11/29 05:26:31;;;;;;;28.95;16.67;;;7.50;99.90;;;;;;5134603;27;20183;-62
2022/11/29 05:29:10;;;;;;;24.90;15.68;;;7.00;99.90;;;;;;5134453;27;20655;-62
2022/11/29 05:31:36;;;;;;;31.50;15.57;;;6.80;99.90;;;;;;5134560;27;20202;-62
2022/11/29 05:34:29;;;;;;;26.90;14.93;;;7.00;99.90;;;;;;5134533;27;20180;-62
2022/11/29 05:37:24;;;;;;;52.67;16.98;;;7.20;99.90;;;;;;5134476;27;20180;-62
2022/11/29 05:40:33;;;;;;;29.73;15.75;;;7.20;99.90;;;;;;5115655;27;20339;-62
2022/11/29 05:43:32;;;;;;;48.97;16.95;;;7.20;99.90;;;;;;5134444;27;20218;-62
2022/11/29 05:46:00;;;;;;;44.50;17.10;;;7.30;99.90;;;;;;5134536;27;20172;-62
2022/11/29 05:49:05;;;;;;;35.30;17.25;;;7.20;99.90;;;;;;5134380;27;20173;-62
2022/11/29 05:51:43;;;;;;;47.05;17.30;;;7.10;99.90;;;;;;5134143;27;20176;-62
2022/11/29 05:54:26;;;;;;;22.05;14.68;;;7.20;99.90;;;;;;5134507;28;20195;-62
2022/11/29 05:57:27;;;;;;;42.08;17.23;;;7.30;99.90;;;;;;5138486;27;20169;-62
2022/11/29 05:59:56;;;;;;;50.30;17.20;;;7.20;99.90;;;;;;5112887;27;20214;-60
2022/11/29 06:02:42;;;;;;;63.72;19.33;;;6.80;99.90;;;;;;5122314;27;20176;-61
2022/11/29 06:05:40;;;;;;;37.60;15.50;;;6.90;99.90;;;;;;5141450;27;20207;-61
2022/11/29 06:08:33;;;;;;;36.80;15.88;;;6.60;99.90;;;;;;5101348;27;20193;-62
2022/11/29 06:11:14;;;;;;;49.03;16.52;;;6.50;99.90;;;;;;5122381;27;20255;-62
2022/11/29 06:13:49;;;;;;;35.80;15.02;;;6.70;99.90;;;;;;5140845;27;20210;-63
2022/11/29 06:16:33;;;;;;;52.70;18.38;;;6.70;99.90;;;;;;5141059;27;20224;-62
2022/11/29 06:19:44;;;;;;;44.88;15.13;;;6.90;99.90;;;;;;5140728;27;20156;-62
2022/11/29 06:22:23;;;;;;;41.80;15.95;;;7.00;99.90;;;;;;5122276;27;20687;-62
2022/11/29 06:24:55;;;;;;;36.13;16.27;;;7.00;99.90;;;;;;5140878;27;20597;-62
2022/11/29 06:27:21;;;;;;;40.13;16.55;;;7.10;99.90;;;;;;5140637;27;20206;-62
2022/11/29 06:30:05;;;;;;;42.85;16.33;;;7.20;99.90;;;;;;5140899;27;20612;-62
2022/11/29 06:33:00;;;;;;;38.47;17.40;;;7.30;99.90;;;;;;5140056;27;20192;-62
2022/11/29 06:35:47;;;;;;;53.67;18.73;;;7.30;99.90;;;;;;5122133;27;20700;-61
2022/11/29 06:38:16;;;;;;;44.05;17.73;;;7.30;99.90;;;;;;5140783;27;20182;-62
2022/11/29 06:40:42;;;;;;;65.35;17.75;;;7.20;99.90;;;;;;5140740;27;20188;-62
2022/11/29 06:43:08;;;;;;;48.15;16.67;;;7.10;99.90;;;;;;5140634;27;20259;-62
2022/11/29 06:45:34;;;;;;;37.53;16.67;;;7.20;99.90;;;;;;5140290;27;20269;-62
2022/11/29 06:48:05;;;;;;;39.35;17.52;;;7.30;99.90;;;;;;5140466;27;20321;-62
2022/11/29 06:50:30;;;;;;;27.30;15.20;;;7.20;99.90;;;;;;5122232;27;20670;-62
2022/11/29 06:53:19;;;;;;;34.00;17.23;;;7.20;99.90;;;;;;5140547;27;20203;-62
2022/11/29 06:56:07;;;;;;;69.60;19.70;;;7.30;99.90;;;;;;5140475;27;20642;-62
2022/11/29 06:58:44;;;;;;;31.75;16.30;;;7.20;99.90;;;;;;5140708;27;20167;-62
2022/11/29 07:01:21;;;;;;;26.52;15.00;;;7.20;99.90;;;;;;5140599;27;20190;-61
2022/11/29 07:03:57;;;;;;;32.33;15.77;;;7.30;99.90;;;;;;5140311;27;20175;-62
2022/11/29 07:06:28;;;;;;;28.13;15.75;;;7.20;99.90;;;;;;5140450;27;20167;-62
2022/11/29 07:09:16;;;;;;;25.98;15.30;;;7.10;99.90;;;;;;5136544;27;20207;-62
2022/11/29 07:11:43;;;;;;;21.25;14.60;;;7.10;99.90;;;;;;5137214;27;20192;-62
2022/11/29 07:14:09;;;;;;;21.73;13.70;;;7.10;99.90;;;;;;5118916;27;20175;-62
2022/11/29 07:16:44;;;;;;;25.67;15.05;;;7.20;99.90;;;;;;5118700;27;20188;-62
2022/11/29 07:20:00;;;;;;;26.42;15.00;;;7.20;99.90;;;;;;5136847;27;20172;-62
2022/11/29 07:22:43;;;;;;;29.65;14.45;;;7.20;99.90;;;;;;5033623;28;20213;-62
2022/11/29 07:25:12;;;;;;;21.80;14.40;;;7.10;99.90;;;;;;5136786;27;20169;-62
2022/11/29 07:27:48;;;;;;;20.10;13.52;;;7.20;99.90;;;;;;5136688;27;20281;-62
2022/11/29 07:30:20;;;;;;;41.15;17.35;;;7.20;99.90;;;;;;5136672;27;20168;-62
2022/11/29 07:33:07;;;;;;;26.92;15.00;;;7.10;99.90;;;;;;5136459;27;20291;-62
2022/11/29 07:35:53;;;;;;;36.60;15.68;;;7.10;99.90;;;;;;5136575;27;20570;-62
2022/11/29 07:38:40;;;;;;;47.45;17.60;;;6.90;99.90;;;;;;5135649;27;20303;-62
2022/11/29 07:41:37;;;;;;;27.70;14.23;;;7.00;99.90;;;;;;5136381;27;20196;-62
2022/11/29 07:44:24;;;;;;;30.92;15.68;;;6.70;99.90;;;;;;5096970;27;20236;-62
2022/11/29 07:46:50;;;;;;;25.42;14.55;;;6.90;99.90;;;;;;5136612;27;20250;-62
2022/11/29 07:49:16;;;;;;;41.92;18.23;;;7.00;99.90;;;;;;5136470;27;20267;-62
2022/11/29 07:51:42;;;;;;;57.92;17.77;;;6.90;99.90;;;;;;5118011;27;20687;-62
2022/11/29 07:54:09;;;;;;;28.10;15.45;;;6.90;99.90;;;;;;5117914;27;20233;-62
2022/11/29 07:56:35;;;;;;;26.90;15.68;;;7.00;99.90;;;;;;5136140;27;20190;-62
2022/11/29 07:59:01;;;;;;;31.38;17.33;;;7.20;99.90;;;;;;5117792;27;20646;-61
2022/11/29 08:01:27;;;;;;;52.90;18.80;;;7.20;99.90;;;;;;5136188;27;20219;-61
2022/11/29 08:03:52;;;;;;;44.58;17.42;;;7.10;99.90;;;;;;5100935;27;20173;-62
2022/11/29 08:06:25;;;;;;;39.03;16.90;;;7.20;99.90;;;;;;5117890;27;20628;-62
2022/11/29 08:08:51;;;;;;;25.48;16.38;;;7.30;99.90;;;;;;5136043;27;20173;-62
2022/11/29 08:11:16;;;;;;;55.10;16.70;;;7.30;99.90;;;;;;5135710;27;20631;-62
2022/11/29 08:13:42;;;;;;;85.43;19.40;;;7.30;99.90;;;;;;5117712;27;20200;-62
2022/11/29 08:16:07;;;;;;;138.80;21.35;;;6.90;99.90;;;;;;5136045;27;20181;-62
2022/11/29 08:18:35;;;;;;;80.30;18.92;;;6.90;99.90;;;;;;5117380;27;20647;-61
2022/11/29 08:21:06;;;;;;;119.95;21.63;;;6.90;99.90;;;;;;5135825;27;20595;-62
2022/11/29 08:23:31;;;;;;;32.80;14.48;;;6.90;99.90;;;;;;5135678;27;20176;-62
2022/11/29 08:26:01;;;;;;;33.38;15.65;;;7.10;99.90;;;;;;5117328;27;20202;-62
2022/11/29 08:28:27;;;;;;;34.85;15.82;;;7.30;99.90;;;;;;5135761;27;20232;-62
2022/11/29 08:31:03;;;;;;;221.93;29.63;;;7.40;99.90;;;;;;5117409;27;20181;-62
2022/11/29 08:33:29;;;;;;;69.63;17.38;;;7.50;99.90;;;;;;5135628;27;20235;-62
2022/11/29 08:35:56;;;;;;;57.58;19.00;;;7.50;99.90;;;;;;5135537;27;20210;-62
2022/11/29 08:38:22;;;;;;;169.27;27.50;;;7.60;99.90;;;;;;5117205;27;20180;-62
2022/11/29 08:40:48;;;;;;;36.78;16.42;;;7.50;99.90;;;;;;5135247;27;20226;-62
2022/11/29 08:43:13;;;;;;;121.28;25.50;;;7.60;99.90;;;;;;5117191;27;20211;-62
2022/11/29 08:45:39;;;;;;;51.50;18.55;;;7.50;99.90;;;;;;5116972;27;20179;-62
2022/11/29 08:48:05;;;;;;;49.70;19.23;;;7.60;99.90;;;;;;5135265;27;20288;-62
2022/11/29 08:50:30;;;;;;;41.28;17.33;;;7.60;99.90;;;;;;5135147;27;20168;-62
2022/11/29 08:55:41;;;;;;;58.05;16.98;;;7.70;99.90;;;;;;5135349;27;20224;-62
2022/11/29 08:58:10;;;;;;;54.28;18.20;;;7.80;99.90;;;;;;5116867;27;20180;-62
2022/11/29 09:00:37;;;;;;;36.00;17.17;;;7.90;99.90;;;;;;5135039;27;20173;-62
2022/11/29 09:05:50;;;;;;;33.92;17.83;;;8.10;99.90;;;;;;5135123;27;20206;-62
2022/11/29 09:08:16;;;;;;;61.30;17.40;;;8.10;99.90;;;;;;5134912;27;20164;-62
2022/11/29 09:10:41;;;;;;;76.50;17.10;;;8.20;99.90;;;;;;5134606;27;20560;-62
2022/11/29 09:13:08;;;;;;;51.63;15.20;;;8.30;99.90;;;;;;5134606;27;20204;-62
2022/11/29 09:15:36;;;;;;;71.18;17.13;;;8.30;99.90;;;;;;5099427;27;20199;-61
2022/11/29 09:18:04;;;;;;;43.92;17.58;;;8.30;99.90;;;;;;5134638;27;20272;-62
2022/11/29 09:20:30;;;;;;;43.00;14.77;;;8.30;99.90;;;;;;5134795;27;20180;-62
2022/11/29 09:22:57;;;;;;;73.53;15.70;;;8.40;99.90;;;;;;5134971;27;20169;-62
2022/11/29 09:25:23;;;;;;;50.58;14.02;;;8.00;99.90;;;;;;5134612;27;20179;-62
2022/11/29 09:27:49;;;;;;;50.90;14.25;;;8.20;99.90;;;;;;5134438;27;20513;-62
2022/11/29 09:30:14;;;;;;;32.22;14.68;;;8.40;99.90;;;;;;5134501;27;20172;-62
2022/11/29 09:32:40;;;;;;;54.50;19.95;;;8.40;99.90;;;;;;5133915;27;20195;-62
2022/11/29 09:35:06;;;;;;;55.33;15.98;;;8.40;99.90;;;;;;5134613;27;20537;-62
2022/11/29 09:37:32;;;;;;;50.00;15.82;;;8.40;99.90;;;;;;5116064;27;20184;-62
2022/11/29 09:39:57;;;;;;;52.53;15.50;;;8.50;99.90;;;;;;5098949;27;20176;-62
2022/11/29 09:42:47;;;;;;;73.05;16.80;;;8.70;99.90;;;;;;5134336;27;20191;-62
2022/11/29 09:45:18;;;;;;;84.32;21.60;;;8.80;99.90;;;;;;5134212;27;20163;-62
2022/11/29 09:48:11;;;;;;;126.57;19.60;;;8.70;99.90;;;;;;5134389;27;20173;-62
2022/11/29 09:50:45;;;;;;;38.10;17.23;;;8.40;99.90;;;;;;5134339;27;20228;-62
2022/11/29 09:53:29;;;;;;;41.08;16.33;;;8.60;99.90;;;;;;5134182;27;20683;-62
2022/11/29 09:56:24;;;;;;;46.20;14.35;;;8.80;99.90;;;;;;5115947;28;20194;-62
2022/11/29 09:58:58;;;;;;;32.30;14.02;;;8.90;99.90;;;;;;5095145;28;20184;-62
2022/11/29 10:01:36;;;;;;;60.67;16.40;;;8.70;99.90;;;;;;5134129;28;20199;-62
2022/11/29 10:04:06;;;;;;;66.40;16.85;;;8.80;99.90;;;;;;5134009;28;20178;-62
2022/11/29 10:06:49;;;;;;;105.55;29.50;;;8.90;99.90;;;;;;5134559;28;20207;-62
2022/11/29 10:09:24;;;;;;;64.15;16.83;;;8.90;99.90;;;;;;5134172;28;20165;-62
2022/11/29 10:11:53;;;;;;;38.17;15.93;;;9.00;99.90;;;;;;5133992;28;20661;-62
2022/11/29 10:14:22;;;;;;;27.13;20.65;;;9.20;99.90;;;;;;5133864;28;20183;-62
2022/11/29 10:17:02;;;;;;;33.63;15.65;;;9.10;99.90;;;;;;5115745;28;20632;-62
2022/11/29 10:19:38;;;;;;;72.57;33.75;;;9.20;99.90;;;;;;5134033;28;20639;-62
2022/11/29 10:22:16;;;;;;;62.75;24.90;;;8.70;99.90;;;;;;5133959;28;20175;-62
2022/11/29 10:24:47;;;;;;;37.28;18.65;;;8.60;99.90;;;;;;5133932;28;20251;-62
2022/11/29 10:27:19;;;;;;;36.40;17.10;;;8.90;99.90;;;;;;5134147;28;20280;-62
2022/11/29 10:29:49;;;;;;;31.85;18.88;;;9.10;99.90;;;;;;5134028;28;20171;-62
2022/11/29 10:32:16;;;;;;;30.30;24.48;;;9.30;99.90;;;;;;5115876;28;20211;-62
2022/11/29 10:34:42;;;;;;;36.00;28.55;;;9.40;99.90;;;;;;5133771;28;20679;-62
2022/11/29 10:37:14;;;;;;;28.65;21.55;;;9.30;99.90;;;;;;5133741;28;20203;-62
2022/11/29 10:39:51;;;;;;;32.03;17.55;;;9.40;99.90;;;;;;5133707;28;20518;-62
2022/11/29 10:45:27;;;;;;;64.07;24.17;;;9.70;99.90;;;;;;5137985;27;20587;-62
2022/11/29 10:48:00;;;;;;;24.55;20.98;;;9.50;99.90;;;;;;5137577;27;20191;-62
2022/11/29 10:50:29;;;;;;;65.85;29.17;;;9.50;99.90;;;;;;5137747;27;20240;-62
2022/11/29 10:53:04;;;;;;;25.45;19.63;;;9.50;99.90;;;;;;5137606;27;20212;-62
2022/11/29 10:55:37;;;;;;;20.05;16.77;;;9.50;99.90;;;;;;5137554;27;20644;-62
2022/11/29 10:58:13;;;;;;;19.58;16.45;;;9.70;99.90;;;;;;5137455;27;20192;-61
2022/11/29 11:00:56;;;;;;;24.17;15.20;;;9.90;99.90;;;;;;5137595;27;20225;-62
2022/11/29 11:03:36;;;;;;;23.92;20.83;;;9.90;99.90;;;;;;5137248;27;20711;-61
2022/11/29 11:06:12;;;;;;;20.38;18.38;;;9.90;99.90;;;;;;5118893;27;20183;-62
2022/11/29 11:08:42;;;;;;;55.85;28.33;;;9.70;99.90;;;;;;5137073;27;20168;-62
2022/11/29 11:11:08;;;;;;;22.33;17.15;;;9.50;99.90;;;;;;5137324;27;20172;-62
2022/11/29 11:13:35;;;;;;;27.92;20.40;;;9.70;99.90;;;;;;5136992;27;20208;-62
2022/11/29 11:16:14;;;;;;;28.63;22.13;;;9.80;99.90;;;;;;5137138;27;20177;-62
2022/11/29 11:18:40;;;;;;;23.15;20.65;;;9.80;99.90;;;;;;5137114;27;20248;-62
2022/11/29 11:21:12;;;;;;;24.42;20.30;;;9.80;99.90;;;;;;5118532;27;20263;-62
2022/11/29 11:23:55;;;;;;;29.00;21.60;;;9.80;99.90;;;;;;5137017;27;20630;-61
2022/11/29 11:26:22;;;;;;;29.02;24.05;;;9.70;99.90;;;;;;5137046;27;20173;-62
2022/11/29 11:29:01;;;;;;;30.80;24.40;;;9.60;99.90;;;;;;5118704;27;20165;-61
2022/11/29 11:31:37;;;;;;;30.83;23.77;;;9.60;99.90;;;;;;5136746;27;20172;-61
2022/11/29 11:34:44;;;;;;;33.70;24.92;;;9.60;99.90;;;;;;5136723;27;20185;-61
2022/11/29 11:37:19;;;;;;;35.88;26.17;;;9.70;99.90;;;;;;5136696;27;20168;-62
2022/11/29 11:39:47;;;;;;;51.53;30.08;;;9.70;99.90;;;;;;5136291;27;20636;-62
2022/11/29 11:42:37;;;;;;;37.53;22.10;;;9.70;99.90;;;;;;5136833;27;20195;-62
2022/11/29 11:45:10;;;;;;;32.60;20.85;;;9.70;99.90;;;;;;5136359;27;20234;-62
2022/11/29 11:47:45;;;;;;;48.40;23.95;;;9.90;99.90;;;;;;5136503;27;20168;-61
2022/11/29 11:50:23;;;;;;;49.67;30.13;;;9.90;99.90;;;;;;5136367;27;20172;-61
2022/11/29 11:52:52;;;;;;;42.85;26.75;;;9.80;99.90;;;;;;5136633;27;20228;-61
2022/11/29 11:55:20;;;;;;;62.30;31.00;;;9.70;99.90;;;;;;5117449;27;20237;-61
2022/11/29 11:58:12;;;;;;;46.70;26.35;;;9.80;99.90;;;;;;5136167;27;20656;-61
2022/11/29 12:00:48;;;;;;;36.22;26.10;;;9.90;99.90;;;;;;5122387;27;20172;-62
2022/11/29 12:03:39;;;;;;;57.85;31.58;;;9.90;99.90;;;;;;5101424;27;20172;-62
2022/11/29 12:06:27;;;;;;;44.10;26.63;;;9.90;99.90;;;;;;5136152;27;20169;-62
2022/11/29 12:09:37;;;;;;;61.80;28.90;;;9.70;99.90;;;;;;5136019;27;20161;-62
2022/11/29 12:12:25;;;;;;;41.15;25.65;;;9.60;99.90;;;;;;5135822;27;20208;-61
2022/11/29 12:15:12;;;;;;;58.38;32.88;;;9.50;99.90;;;;;;5135879;27;20272;-61
2022/11/29 12:17:59;;;;;;;29.63;23.98;;;9.70;99.90;;;;;;5135936;27;20506;-62
2022/11/29 12:20:39;;;;;;;27.35;24.15;;;9.50;99.90;;;;;;5135843;27;20587;-62
2022/11/29 12:23:28;;;;;;;31.33;19.88;;;9.80;99.90;;;;;;5135702;27;20177;-62
2022/11/29 12:26:21;;;;;;;34.75;25.40;;;9.90;99.90;;;;;;5120979;27;20196;-62
2022/11/29 12:28:47;;;;;;;30.90;23.20;;;10.00;99.90;;;;;;5135794;27;20165;-61
2022/11/29 12:31:47;;;;;;;27.60;24.60;;;10.10;99.90;;;;;;5135561;27;20641;-61
2022/11/29 12:34:31;;;;;;;34.55;26.48;;;10.20;99.90;;;;;;5135760;27;20168;-61
2022/11/29 12:37:15;;;;;;;31.83;23.85;;;10.20;99.90;;;;;;5135535;27;20168;-61
2022/11/29 12:39:51;;;;;;;29.75;23.13;;;10.30;99.90;;;;;;5135419;27;20160;-61
2022/11/29 12:42:35;;;;;;;28.08;23.40;;;10.20;99.90;;;;;;5135280;27;20274;-61
2022/11/29 12:45:20;;;;;;;25.63;21.85;;;10.30;99.90;;;;;;5135473;27;20168;-61
2022/11/29 12:48:09;;;;;;;31.17;20.42;;;10.50;99.90;;;;;;5135454;27;20168;-62
2022/11/29 12:50:39;;;;;;;38.25;27.42;;;10.30;99.90;;;;;;5134733;27;20184;-62
2022/11/29 12:53:22;;;;;;;27.75;24.83;;;10.40;99.90;;;;;;5135424;27;20208;-62
2022/11/29 12:56:02;;;;;;;28.95;24.98;;;10.40;99.90;;;;;;5135251;27;20616;-62
2022/11/29 12:58:39;;;;;;;26.80;22.63;;;10.50;99.90;;;;;;5135129;27;20648;-62
2022/11/29 13:01:24;;;;;;;28.92;20.33;;;10.60;99.90;;;;;;5134794;27;20176;-61
2022/11/29 13:04:02;;;;;;;26.65;23.77;;;10.70;99.90;;;;;;5135052;27;20260;-61
2022/11/29 13:06:48;;;;;;;28.63;21.48;;;10.70;99.90;;;;;;5115849;27;20570;-61
2022/11/29 13:09:33;;;;;;;27.45;24.17;;;10.70;99.90;;;;;;5116398;27;20532;-62
2022/11/29 13:12:24;;;;;;;28.92;25.65;;;10.60;99.90;;;;;;5116489;27;20538;-61
2022/11/29 13:14:57;;;;;;;27.58;24.45;;;10.60;99.90;;;;;;5134810;27;20572;-62
2022/11/29 13:17:57;;;;;;;29.88;25.05;;;10.50;99.90;;;;;;5134701;27;20171;-62
2022/11/29 13:20:37;;;;;;;45.53;30.45;;;10.60;99.90;;;;;;5134812;27;20165;-62
2022/11/29 13:23:23;;;;;;;27.65;24.67;;;10.50;99.90;;;;;;5134811;27;20176;-62
2022/11/29 13:25:53;;;;;;;28.35;24.38;;;10.40;99.90;;;;;;5116457;27;20529;-62
2022/11/29 13:28:24;;;;;;;31.33;26.75;;;9.90;99.90;;;;;;5134442;27;20208;-62
2022/11/29 13:30:51;;;;;;;59.10;48.95;;;9.80;99.90;;;;;;5134567;27;20670;-61
2022/11/29 13:33:30;;;;;;;34.92;31.30;;;10.10;99.90;;;;;;5134493;27;20204;-62
2022/11/29 13:36:00;;;;;;;33.08;27.05;;;10.40;99.90;;;;;;5134587;27;20517;-62